createdAt,value
2022-08-05T00:01:36.176Z,13.98
2022-08-05T00:04:17.660Z,16.60
2022-08-05T00:06:51.802Z,20.15
2022-08-05T00:09:20.328Z,16.70
2022-08-05T00:11:55.880Z,14.65
2022-08-05T00:14:29.150Z,21.10
2022-08-05T00:17:02.080Z,18.13
2022-08-05T00:19:33.241Z,19.33
2022-08-05T00:22:04.239Z,12.15
2022-08-05T00:24:32.776Z,15.23
2022-08-05T00:27:04.724Z,20.00
2022-08-05T00:29:39.111Z,16.85
2022-08-05T00:32:12.362Z,15.75
2022-08-05T00:35:03.807Z,19.25
2022-08-05T00:37:51.358Z,14.70
2022-08-05T00:40:27.408Z,14.45
2022-08-05T00:42:57.976Z,15.13
2022-08-05T00:45:38.951Z,16.17
2022-08-05T00:48:11.574Z,19.52
2022-08-05T00:50:42.061Z,16.05
2022-08-05T00:54:01.140Z,18.88
2022-08-05T00:56:08.438Z,18.08
2022-08-05T00:58:36.937Z,17.45
2022-08-05T01:01:08.664Z,18.27
2022-08-05T01:03:37.520Z,16.17
2022-08-05T01:06:05.786Z,22.35
2022-08-05T01:08:44.681Z,18.00
2022-08-05T01:11:22.204Z,16.65
2022-08-05T01:14:08.567Z,19.38
2022-08-05T01:16:41.802Z,19.67
2022-08-05T01:19:46.225Z,17.45
2022-08-05T01:22:27.982Z,20.83
2022-08-05T01:25:39.924Z,20.95
2022-08-05T01:28:33.172Z,16.38
2022-08-05T01:31:05.766Z,21.23
2022-08-05T01:33:40.771Z,24.23
2022-08-05T01:36:16.216Z,17.17
2022-08-05T01:38:48.441Z,18.95
2022-08-05T01:41:21.840Z,15.10
2022-08-05T01:43:52.430Z,21.65
2022-08-05T01:46:42.417Z,21.75
2022-08-05T01:49:23.933Z,20.15
2022-08-05T01:51:58.755Z,23.13
2022-08-05T01:54:33.254Z,19.67
2022-08-05T01:58:11.648Z,20.63
2022-08-05T01:59:57.946Z,20.50
2022-08-05T02:02:29.965Z,18.38
2022-08-05T02:05:01.247Z,18.80
2022-08-05T02:07:31.918Z,20.63
2022-08-05T02:10:02.120Z,18.20
2022-08-05T02:12:35.970Z,18.35
2022-08-05T02:15:12.354Z,23.50
2022-08-05T02:18:31.484Z,21.55
2022-08-05T02:20:41.666Z,19.90
2022-08-05T02:23:13.519Z,20.17
2022-08-05T02:25:49.848Z,22.63
2022-08-05T02:28:28.395Z,21.65
2022-08-05T02:31:07.531Z,17.80
2022-08-05T02:33:40.736Z,19.10
2022-08-05T02:36:13.751Z,19.90
2022-08-05T02:38:53.636Z,22.17
2022-08-05T02:41:28.561Z,18.70
2022-08-05T02:44:13.096Z,27.50
2022-08-05T02:46:58.909Z,19.00
2022-08-05T02:49:36.411Z,21.45
2022-08-05T02:52:09.209Z,18.02
2022-08-05T02:54:41.062Z,19.55
2022-08-05T02:58:11.605Z,22.23
2022-08-05T03:00:01.592Z,18.67
2022-08-05T03:02:35.909Z,20.02
2022-08-05T03:05:05.273Z,22.30
2022-08-05T03:07:59.133Z,21.85
2022-08-05T03:10:25.229Z,20.48
2022-08-05T03:12:54.289Z,21.33
2022-08-05T03:15:24.155Z,20.25
2022-08-05T03:17:55.861Z,20.65
2022-08-05T03:20:25.050Z,22.95
2022-08-05T03:22:57.063Z,22.27
2022-08-05T03:26:02.652Z,21.98
2022-08-05T03:28:18.704Z,21.05
2022-08-05T03:30:49.433Z,26.77
2022-08-05T03:33:19.540Z,22.42
2022-08-05T03:35:49.891Z,20.98
2022-08-05T03:38:32.916Z,24.45
2022-08-05T03:41:10.979Z,21.55
2022-08-05T03:44:09.068Z,19.48
2022-08-05T03:46:30.060Z,19.77
2022-08-05T03:49:02.218Z,23.48
2022-08-05T03:52:49.413Z,22.85
2022-08-05T03:55:34.740Z,24.45
2022-08-05T03:57:41.150Z,23.08
2022-08-05T04:00:15.587Z,26.58
2022-08-05T04:02:57.578Z,24.33
2022-08-05T04:05:33.800Z,24.42
2022-08-05T04:08:05.695Z,22.95
2022-08-05T04:10:44.835Z,26.90
2022-08-05T04:13:13.217Z,28.48
2022-08-05T04:15:52.737Z,26.48
2022-08-05T04:18:30.099Z,23.95
2022-08-05T04:20:59.616Z,27.52
2022-08-05T04:23:57.204Z,24.83
2022-08-05T04:26:18.810Z,26.17
2022-08-05T04:28:50.811Z,26.67
2022-08-05T04:31:21.088Z,30.63
2022-08-05T04:33:54.438Z,29.65
2022-08-05T04:36:49.915Z,27.73
2022-08-05T04:39:18.701Z,30.40
2022-08-05T04:41:48.160Z,32.85
2022-08-05T04:44:29.651Z,30.95
2022-08-05T04:46:59.135Z,33.50
2022-08-05T04:50:01.080Z,37.00
2022-08-05T04:52:34.568Z,37.65
2022-08-05T04:55:14.303Z,38.70
2022-08-05T04:57:47.716Z,41.97
2022-08-05T05:00:17.486Z,36.45
2022-08-05T05:02:45.480Z,42.97
2022-08-05T05:05:26.016Z,38.70
2022-08-05T05:08:02.122Z,46.10
2022-08-05T05:10:33.263Z,42.95
2022-08-05T05:13:04.710Z,43.78
2022-08-05T05:16:01.786Z,41.60
2022-08-05T05:18:31.601Z,41.75
2022-08-05T05:21:07.318Z,48.38
2022-08-05T05:24:02.271Z,49.10
2022-08-05T05:26:32.810Z,42.90
2022-08-05T05:29:02.605Z,42.83
2022-08-05T05:31:41.894Z,42.60
2022-08-05T05:34:15.525Z,48.97
2022-08-05T05:36:47.060Z,38.20
2022-08-05T05:39:19.127Z,43.97
2022-08-05T05:41:54.558Z,39.75
2022-08-05T05:44:36.777Z,47.28
2022-08-05T05:47:21.370Z,42.10
2022-08-05T05:49:56.579Z,45.85
2022-08-05T05:52:28.446Z,41.28
2022-08-05T05:55:01.814Z,42.17
2022-08-05T05:57:43.023Z,45.50
2022-08-05T06:00:27.716Z,47.83
2022-08-05T06:03:01.645Z,50.17
2022-08-05T06:05:29.834Z,46.45
2022-08-05T06:08:01.962Z,41.17
2022-08-05T06:10:36.636Z,40.10
2022-08-05T06:13:08.108Z,36.90
2022-08-05T06:16:28.241Z,34.63
2022-08-05T06:18:30.960Z,32.22
2022-08-05T06:21:00.030Z,28.45
2022-08-05T06:23:43.790Z,30.50
2022-08-05T06:26:21.705Z,33.25
2022-08-05T06:28:55.999Z,37.88
2022-08-05T06:31:30.400Z,32.85
2022-08-05T06:34:07.279Z,33.50
2022-08-05T06:36:58.030Z,31.45
2022-08-05T06:39:27.733Z,28.17
2022-08-05T06:41:59.142Z,33.45
2022-08-05T06:44:27.746Z,41.78
2022-08-05T06:46:56.214Z,25.95
2022-08-05T06:50:00.552Z,28.13
2022-08-05T06:52:38.164Z,29.73
2022-08-05T06:55:02.529Z,32.45
2022-08-05T06:58:02.844Z,26.08
2022-08-05T07:00:22.475Z,25.02
2022-08-05T07:02:56.505Z,22.90
2022-08-05T07:05:31.878Z,24.65
2022-08-05T07:08:06.476Z,23.25
2022-08-05T07:10:52.952Z,26.65
2022-08-05T07:13:57.946Z,22.35
2022-08-05T07:18:01.836Z,21.73
2022-08-05T07:22:29.134Z,20.58
2022-08-05T07:25:22.995Z,17.17
2022-08-05T07:27:58.853Z,18.02
2022-08-05T07:30:33.709Z,18.55
2022-08-05T07:33:08.811Z,20.52
2022-08-05T07:36:03.728Z,16.58
2022-08-05T07:38:33.871Z,14.85
2022-08-05T07:42:08.865Z,13.68
2022-08-05T07:43:59.982Z,14.48
2022-08-05T07:46:31.749Z,13.45
2022-08-05T07:49:05.755Z,15.48
2022-08-05T07:51:48.886Z,11.10
2022-08-05T07:54:30.980Z,13.00
2022-08-05T07:57:17.576Z,14.90
2022-08-05T07:59:51.512Z,13.98
2022-08-05T08:02:26.720Z,14.80
2022-08-05T08:05:02.892Z,14.45
2022-08-05T08:07:39.772Z,12.15
2022-08-05T08:10:20.905Z,14.27
2022-08-05T08:12:49.962Z,17.98
2022-08-05T08:15:18.222Z,12.23
2022-08-05T08:18:14.418Z,14.93
2022-08-05T08:21:02.410Z,14.55
2022-08-05T08:24:03.053Z,11.52
2022-08-05T08:26:29.555Z,13.90
2022-08-05T08:29:22.296Z,10.95
2022-08-05T08:31:49.077Z,9.32
2022-08-05T08:34:30.350Z,10.23
2022-08-05T08:37:53.505Z,10.27
2022-08-05T08:40:34.721Z,8.35
2022-08-05T08:45:17.126Z,10.23
2022-08-05T08:45:55.954Z,8.63
2022-08-05T08:48:41.677Z,14.60
2022-08-05T08:52:01.669Z,9.32
2022-08-05T08:54:09.626Z,8.25
2022-08-05T08:56:47.798Z,7.70
2022-08-05T08:59:20.905Z,6.82
2022-08-05T09:01:57.238Z,8.40
2022-08-05T09:04:30.350Z,7.38
2022-08-05T09:07:00.403Z,9.70
2022-08-05T09:09:35.365Z,6.53
2022-08-05T09:12:14.416Z,6.72
2022-08-05T09:14:58.017Z,5.40
2022-08-05T09:17:42.591Z,5.72
2022-08-05T09:20:20.818Z,5.18
2022-08-05T09:23:22.105Z,5.00
2022-08-05T09:26:02.329Z,6.03
2022-08-05T09:28:34.310Z,6.85
2022-08-05T09:31:22.230Z,6.63
2022-08-05T09:33:56.614Z,5.13
2022-08-05T09:36:27.803Z,6.80
2022-08-05T09:39:18.125Z,4.63
2022-08-05T09:41:58.575Z,9.43
2022-08-05T09:44:37.963Z,7.80
2022-08-05T09:47:12.515Z,6.90
2022-08-05T09:50:01.185Z,6.82
2022-08-05T09:52:32.930Z,5.45
2022-08-05T09:55:06.250Z,6.18
2022-08-05T09:57:54.772Z,5.68
2022-08-05T10:00:26.805Z,5.75
2022-08-05T10:02:58.499Z,8.27
2022-08-05T10:05:29.264Z,6.68
2022-08-05T10:08:35.142Z,5.10
2022-08-05T10:10:54.259Z,5.10
2022-08-05T10:13:46.283Z,4.18
2022-08-05T10:16:34.190Z,4.75
2022-08-05T10:19:09.148Z,7.10
2022-08-05T10:21:39.982Z,6.20
2022-08-05T10:24:13.261Z,4.13
2022-08-05T10:26:49.205Z,4.40
2022-08-05T10:29:24.134Z,4.95
2022-08-05T10:32:52.646Z,5.45
2022-08-05T10:35:02.333Z,7.38
2022-08-05T10:37:40.285Z,5.68
2022-08-05T10:40:28.053Z,7.45
2022-08-05T10:57:38.722Z,5.00
2022-08-05T11:00:24.219Z,7.50
2022-08-05T11:03:23.134Z,5.40
2022-08-05T11:06:15.913Z,4.28
2022-08-05T11:09:32.285Z,4.95
2022-08-05T11:12:55.178Z,5.88
2022-08-05T11:15:59.201Z,6.50
2022-08-05T11:18:30.141Z,6.00
2022-08-05T11:21:02.653Z,4.53
2022-08-05T11:24:03.129Z,5.22
2022-08-05T11:26:28.299Z,6.65
2022-08-05T11:29:12.700Z,7.88
2022-08-05T11:31:54.478Z,9.60
2022-08-05T11:34:51.739Z,6.13
2022-08-05T11:38:28.946Z,6.20
2022-08-05T11:41:35.061Z,7.07
2022-08-05T11:44:05.606Z,8.80
2022-08-05T11:46:37.857Z,6.78
2022-08-05T11:49:27.822Z,7.63
2022-08-05T11:51:57.602Z,8.50
2022-08-05T11:54:34.526Z,9.18
2022-08-05T11:57:08.062Z,7.80
2022-08-05T11:59:53.320Z,7.28
2022-08-05T12:02:30.561Z,6.75
2022-08-05T12:05:06.774Z,8.45
2022-08-05T12:08:09.492Z,6.97
2022-08-05T12:10:38.542Z,7.20
2022-08-05T12:13:47.873Z,7.50
2022-08-05T12:16:18.966Z,6.72
2022-08-05T12:18:48.994Z,7.50
2022-08-05T12:21:38.937Z,10.65
2022-08-05T12:24:17.381Z,7.55
2022-08-05T12:26:48.634Z,7.90
2022-08-05T12:29:25.204Z,8.98
2022-08-05T12:32:02.257Z,12.55
2022-08-05T12:34:33.944Z,14.52
2022-08-05T12:37:16.951Z,10.57
2022-08-05T12:39:52.113Z,10.07
2022-08-05T12:42:25.135Z,10.48
2022-08-05T12:45:03.954Z,13.05
2022-08-05T12:47:43.522Z,11.60
2022-08-05T12:50:27.621Z,15.95
2022-08-05T12:53:00.559Z,21.95
2022-08-05T12:55:32.607Z,17.02
2022-08-05T12:58:48.202Z,17.30
2022-08-05T13:02:00.257Z,14.88
2022-08-05T13:03:43.279Z,17.42
2022-08-05T13:06:19.882Z,21.33
2022-08-05T13:08:52.628Z,19.73
2022-08-05T13:12:03.056Z,18.02
2022-08-05T13:14:24.808Z,18.88
2022-08-05T13:17:04.672Z,19.90
2022-08-05T13:19:52.149Z,20.85
2022-08-05T13:22:28.263Z,27.27
2022-08-05T13:25:05.871Z,31.70
2022-08-05T13:27:40.963Z,26.05
2022-08-05T13:30:34.415Z,24.48
2022-08-05T13:33:01.540Z,25.20
2022-08-05T13:35:43.101Z,26.30
2022-08-05T13:38:30.636Z,23.60
2022-08-05T13:41:05.003Z,23.85
2022-08-05T13:43:43.382Z,28.30
2022-08-05T13:46:16.552Z,25.33
2022-08-05T13:49:05.477Z,37.30
2022-08-05T13:51:41.010Z,30.98
2022-08-05T13:54:15.463Z,26.27
2022-08-05T13:56:52.061Z,32.67
2022-08-05T13:59:24.217Z,33.67
2022-08-05T14:01:58.979Z,32.35
2022-08-05T14:04:49.933Z,25.98
2022-08-05T14:07:25.727Z,29.15
2022-08-05T14:10:12.327Z,29.60
2022-08-05T14:12:43.079Z,36.88
2022-08-05T14:16:07.759Z,45.00
2022-08-05T14:18:15.232Z,33.53
2022-08-05T14:20:54.918Z,33.47
2022-08-05T14:23:25.681Z,26.58
2022-08-05T14:25:58.209Z,35.38
2022-08-05T14:28:29.900Z,32.95
2022-08-05T14:30:59.830Z,26.27
2022-08-05T14:33:32.442Z,28.67
2022-08-05T14:36:21.368Z,23.55
2022-08-05T14:38:50.367Z,21.63
2022-08-05T14:41:18.587Z,21.63
2022-08-05T14:43:59.215Z,21.27
2022-08-05T14:46:31.578Z,24.45
2022-08-05T14:49:56.302Z,32.17
2022-08-05T14:52:42.939Z,26.08
2022-08-05T14:55:13.961Z,30.65
2022-08-05T14:57:55.962Z,28.02
2022-08-05T15:00:34.702Z,30.15
2022-08-05T15:03:03.149Z,25.63
2022-08-05T15:06:07.803Z,24.65
2022-08-05T15:09:01.295Z,20.63
2022-08-05T15:11:52.264Z,25.13
2022-08-05T15:14:35.680Z,20.52
2022-08-05T15:17:44.342Z,20.13
2022-08-05T15:19:59.651Z,18.35
2022-08-05T15:22:31.808Z,17.42
2022-08-05T15:25:00.423Z,21.00
2022-08-05T15:27:54.798Z,18.98
2022-08-05T15:30:32.426Z,22.08
2022-08-05T15:33:56.940Z,24.20
2022-08-05T15:36:06.233Z,27.08
2022-08-05T15:38:46.943Z,26.58
2022-08-05T15:41:58.484Z,25.85
2022-08-05T15:44:45.703Z,24.05
2022-08-05T15:47:27.272Z,25.42
2022-08-05T15:50:09.423Z,24.25
2022-08-05T15:53:51.147Z,22.95
2022-08-05T23:24:57.832Z,2.85
2022-08-05T23:27:31.554Z,5.95
2022-08-05T23:30:14.865Z,6.82
2022-08-05T23:32:45.336Z,3.25
2022-08-05T23:35:13.907Z,5.10
2022-08-05T23:37:43.901Z,6.78
2022-08-05T23:40:13.748Z,7.90
2022-08-05T23:42:47.475Z,5.70
2022-08-05T23:45:23.645Z,3.45
2022-08-05T23:47:53.897Z,7.32
2022-08-05T23:50:31.748Z,6.60
2022-08-05T23:53:00.909Z,2.63
2022-08-05T23:55:32.916Z,5.72
2022-08-05T23:58:01.156Z,5.07
